Time;durP1;ratioP1;P1;durP2;ratioP2;P2;SDS_P1;SDS_P2;PMS_P1;PMS_P2;Temp;Humidity;BMP_temperature;BMP_pressure;BME280_temperature;BME280_humidity;BME280_pressure;Samples;Min_cycle;Max_cycle;Signal;HPM_P1;HPM_P2
2023/07/02 00:00:06;;;;;;;6.22;4.07;;;15.70;99.90;;;;;;5067521;28;20452;-86
2023/07/02 00:02:32;;;;;;;6.05;3.90;;;15.40;99.90;;;;;;5067857;28;20283;-86
2023/07/02 00:04:57;;;;;;;5.28;4.10;;;15.30;99.90;;;;;;5067169;28;20041;-86
2023/07/02 00:07:25;;;;;;;5.13;4.63;;;15.20;99.90;;;;;;5067099;28;20102;-86
2023/07/02 00:09:51;;;;;;;5.25;4.22;;;15.20;99.90;;;;;;5066301;28;20040;-86
2023/07/02 00:12:17;;;;;;;6.13;4.50;;;15.20;99.90;;;;;;5067456;28;20048;-87
2023/07/02 00:14:43;;;;;;;5.93;4.60;;;15.10;99.90;;;;;;5067529;28;20090;-87
2023/07/02 00:17:11;;;;;;;8.32;4.50;;;15.20;99.90;;;;;;5066333;28;20056;-86
2023/07/02 00:19:39;;;;;;;6.43;4.43;;;15.20;99.90;;;;;;5066821;28;20056;-86
2023/07/02 00:22:05;;;;;;;6.13;4.13;;;15.20;99.90;;;;;;5067813;28;20067;-86
2023/07/02 00:24:30;;;;;;;4.82;4.07;;;15.30;99.90;;;;;;5067140;28;20479;-87
2023/07/02 00:26:56;;;;;;;11.27;4.78;;;15.30;99.90;;;;;;5067021;28;20040;-86
2023/07/02 00:29:22;;;;;;;6.38;4.38;;;15.30;99.90;;;;;;5061772;28;20029;-87
2023/07/02 00:31:47;;;;;;;7.00;4.47;;;15.30;99.90;;;;;;5047422;28;20045;-87
2023/07/02 00:34:13;;;;;;;6.43;4.40;;;15.30;99.90;;;;;;5064188;28;20500;-86
2023/07/02 00:36:38;;;;;;;8.23;4.60;;;15.30;99.90;;;;;;5049689;28;20132;-87
2023/07/02 00:39:04;;;;;;;6.97;4.50;;;15.30;99.90;;;;;;5050870;28;20040;-87
2023/07/02 00:41:30;;;;;;;9.95;5.40;;;15.30;99.90;;;;;;5065697;28;20177;-86
2023/07/02 00:43:55;;;;;;;10.38;5.22;;;15.30;99.90;;;;;;5049394;28;20400;-86
2023/07/02 00:46:24;;;;;;;9.23;4.88;;;15.20;99.90;;;;;;5048772;28;20055;-86
2023/07/02 00:48:54;;;;;;;16.80;5.03;;;15.30;99.90;;;;;;5048487;28;20048;-86
2023/07/02 00:51:25;;;;;;;10.27;5.05;;;15.20;99.90;;;;;;5066962;28;20815;-86
2023/07/02 00:53:52;;;;;;;9.52;4.85;;;15.10;99.90;;;;;;5065812;28;20137;-85
2023/07/02 00:56:18;;;;;;;9.25;5.22;;;15.00;99.90;;;;;;5065466;28;20090;-86
2023/07/02 00:58:50;;;;;;;10.15;5.47;;;15.00;99.90;;;;;;5065177;28;20044;-86
2023/07/02 01:01:19;;;;;;;11.40;4.82;;;15.20;99.90;;;;;;5065339;28;20041;-86
2023/07/02 01:04:03;;;;;;;10.02;5.55;;;14.80;99.90;;;;;;5066553;28;20051;-86
2023/07/02 01:06:30;;;;;;;9.88;5.85;;;14.70;99.90;;;;;;5065376;28;20041;-85
2023/07/02 01:09:05;;;;;;;12.73;5.57;;;14.70;99.90;;;;;;5049446;28;20447;-86
2023/07/02 01:11:46;;;;;;;8.88;5.00;;;14.60;99.90;;;;;;5065023;28;20056;-86
2023/07/02 01:14:19;;;;;;;9.02;5.80;;;14.50;99.90;;;;;;5066403;28;20059;-85
2023/07/02 01:16:47;;;;;;;14.40;6.07;;;14.50;99.90;;;;;;5066611;28;20044;-86
2023/07/02 01:19:21;;;;;;;12.15;6.20;;;14.40;99.90;;;;;;5053333;28;20049;-85
2023/07/02 01:21:48;;;;;;;11.05;5.28;;;14.40;99.90;;;;;;5053324;28;20105;-85
2023/07/02 01:24:14;;;;;;;11.60;5.40;;;14.30;99.90;;;;;;5069131;28;20590;-85
2023/07/02 01:26:40;;;;;;;12.85;5.97;;;14.30;99.90;;;;;;5052114;28;20041;-85
2023/07/02 01:29:20;;;;;;;9.48;5.45;;;14.20;99.90;;;;;;5071274;28;20045;-85
2023/07/02 01:31:47;;;;;;;12.32;6.65;;;14.20;99.90;;;;;;5049531;28;20036;-85
2023/07/02 01:34:13;;;;;;;12.57;6.22;;;14.10;99.90;;;;;;5059777;28;20373;-85
2023/07/02 01:36:39;;;;;;;14.75;6.43;;;14.10;99.90;;;;;;5059544;28;20558;-85
2023/07/02 01:39:05;;;;;;;22.60;7.07;;;14.00;99.90;;;;;;5063147;28;20059;-85
2023/07/02 01:41:38;;;;;;;12.40;6.35;;;14.00;99.90;;;;;;5069424;28;20040;-85
2023/07/02 01:44:04;;;;;;;11.02;5.97;;;13.90;99.90;;;;;;5050136;28;20053;-85
2023/07/02 01:46:29;;;;;;;13.45;6.43;;;13.90;99.90;;;;;;5056555;28;20044;-85
2023/07/02 01:48:55;;;;;;;16.48;6.10;;;13.80;99.90;;;;;;5067576;28;20040;-85
2023/07/02 01:51:21;;;;;;;13.57;6.43;;;13.80;99.90;;;;;;5068224;28;20049;-85
2023/07/02 01:53:46;;;;;;;13.05;6.32;;;13.70;99.90;;;;;;5069253;28;20064;-85
2023/07/02 01:56:12;;;;;;;12.68;6.60;;;13.70;99.90;;;;;;5069145;28;20040;-85
2023/07/02 01:58:37;;;;;;;12.68;6.78;;;13.60;99.90;;;;;;5067713;28;20044;-84
2023/07/02 02:01:03;;;;;;;12.38;6.07;;;14.00;99.90;;;;;;5052573;28;20369;-85
2023/07/02 02:03:29;;;;;;;12.82;6.18;;;13.50;99.90;;;;;;5069014;28;20037;-85
2023/07/02 02:05:54;;;;;;;12.82;6.28;;;13.80;99.90;;;;;;5068690;28;20182;-85
2023/07/02 02:08:20;;;;;;;13.43;6.10;;;13.50;99.90;;;;;;5052223;28;20110;-84
2023/07/02 02:10:45;;;;;;;16.38;6.13;;;13.40;99.90;;;;;;5052049;28;20044;-85
2023/07/02 02:13:11;;;;;;;14.75;6.10;;;13.50;99.90;;;;;;5067565;28;20690;-85
2023/07/02 02:15:36;;;;;;;13.52;6.90;;;13.30;99.90;;;;;;5067886;28;20051;-85
2023/07/02 02:18:02;;;;;;;12.10;6.13;;;13.20;99.90;;;;;;5068965;28;20044;-86
2023/07/02 02:20:28;;;;;;;14.93;6.95;;;13.20;99.90;;;;;;5047750;28;20202;-85
2023/07/02 02:22:53;;;;;;;14.55;7.05;;;13.20;99.90;;;;;;5049918;28;20051;-84
2023/07/02 02:25:19;;;;;;;12.43;7.07;;;13.20;99.90;;;;;;5068494;28;20047;-86
2023/07/02 02:27:44;;;;;;;18.15;7.43;;;13.10;99.90;;;;;;5068649;28;20043;-84
2023/07/02 02:30:10;;;;;;;16.67;7.18;;;13.10;99.90;;;;;;5049304;28;20412;-86
2023/07/02 02:32:37;;;;;;;15.73;7.97;;;13.10;99.90;;;;;;5069529;28;20082;-85
2023/07/02 02:35:03;;;;;;;16.23;7.45;;;13.00;99.90;;;;;;5069372;28;20127;-85
2023/07/02 02:37:29;;;;;;;16.52;7.32;;;13.00;99.90;;;;;;5069359;28;20048;-85
2023/07/02 02:39:57;;;;;;;17.15;7.45;;;13.00;99.90;;;;;;5070058;28;20037;-85
2023/07/02 02:42:22;;;;;;;17.52;7.45;;;13.00;99.90;;;;;;5069499;28;20052;-85
2023/07/02 02:44:48;;;;;;;17.65;7.43;;;13.30;99.90;;;;;;5052433;28;20037;-84
2023/07/02 02:47:13;;;;;;;18.33;8.63;;;12.90;99.90;;;;;;5069008;28;20125;-85
2023/07/02 02:49:39;;;;;;;18.98;7.35;;;12.90;99.90;;;;;;5067566;28;20052;-85
2023/07/02 02:52:05;;;;;;;15.48;7.30;;;12.90;99.90;;;;;;5070271;28;20130;-84
2023/07/02 02:54:31;;;;;;;16.73;7.65;;;12.90;99.90;;;;;;5068800;28;20092;-85
2023/07/02 02:56:57;;;;;;;16.70;7.55;;;12.90;99.90;;;;;;5068562;28;20135;-85
2023/07/02 02:59:22;;;;;;;17.40;7.88;;;12.80;99.90;;;;;;5069286;28;20416;-85
2023/07/02 03:01:48;;;;;;;15.93;7.70;;;12.90;99.90;;;;;;5052067;28;20090;-85
2023/07/02 03:04:14;;;;;;;17.38;7.90;;;13.00;99.90;;;;;;5068293;28;20063;-85
2023/07/02 03:06:40;;;;;;;16.77;8.65;;;13.00;99.90;;;;;;5067715;28;20040;-85
2023/07/02 03:09:05;;;;;;;20.30;7.93;;;13.40;99.90;;;;;;5069525;28;20416;-84
2023/07/02 03:11:31;;;;;;;19.75;7.32;;;13.30;99.90;;;;;;5068202;28;20060;-85
2023/07/02 03:13:56;;;;;;;15.18;6.80;;;13.00;99.90;;;;;;5084589;28;20051;-85
2023/07/02 03:16:22;;;;;;;14.98;7.53;;;13.30;99.90;;;;;;5069209;28;20139;-85
2023/07/02 03:18:48;;;;;;;16.10;7.05;;;13.00;99.90;;;;;;5068462;28;20051;-85
2023/07/02 03:21:13;;;;;;;18.13;7.90;;;13.00;99.90;;;;;;5069091;28;20044;-86
2023/07/02 03:23:39;;;;;;;20.15;8.60;;;13.00;99.90;;;;;;5067925;28;20041;-86
2023/07/02 03:26:04;;;;;;;18.85;7.75;;;13.00;99.90;;;;;;5068642;28;20048;-85
2023/07/02 03:28:30;;;;;;;19.63;8.15;;;13.00;99.90;;;;;;5067888;28;20472;-86
2023/07/02 03:30:56;;;;;;;24.27;8.85;;;13.00;99.90;;;;;;5050733;28;20063;-86
2023/07/02 03:33:21;;;;;;;18.63;7.15;;;13.00;99.90;;;;;;5067127;28;20041;-86
2023/07/02 03:35:47;;;;;;;18.83;8.40;;;13.50;99.90;;;;;;5065525;28;20032;-86
2023/07/02 03:38:12;;;;;;;22.55;8.02;;;13.10;99.90;;;;;;5066012;28;20048;-85
2023/07/02 03:40:38;;;;;;;19.17;7.90;;;13.10;99.90;;;;;;5066745;28;20047;-85
2023/07/02 03:43:04;;;;;;;18.40;7.43;;;13.10;99.90;;;;;;5067157;28;20067;-85
2023/07/02 03:45:29;;;;;;;13.63;7.38;;;13.10;99.90;;;;;;5050252;28;20613;-86
2023/07/02 03:47:55;;;;;;;16.42;7.43;;;13.10;99.90;;;;;;5065822;28;20051;-86
2023/07/02 03:50:20;;;;;;;23.60;8.07;;;13.10;99.90;;;;;;5048733;28;20084;-85
2023/07/02 03:52:46;;;;;;;17.20;8.10;;;13.10;99.90;;;;;;5067745;28;20527;-86
2023/07/02 03:55:12;;;;;;;17.25;8.00;;;13.00;99.90;;;;;;5067449;28;20087;-86
2023/07/02 03:57:37;;;;;;;25.95;8.40;;;13.00;99.90;;;;;;5069034;28;20046;-85
2023/07/02 04:00:05;;;;;;;19.35;7.68;;;13.00;99.90;;;;;;5067070;28;20051;-85
2023/07/02 04:02:30;;;;;;;19.73;7.53;;;13.00;99.90;;;;;;5050925;28;20041;-85
2023/07/02 04:04:56;;;;;;;18.83;7.82;;;13.00;99.90;;;;;;5066799;28;20040;-87
2023/07/02 04:07:21;;;;;;;18.70;7.78;;;13.10;99.90;;;;;;5065141;28;20041;-85
2023/07/02 04:09:47;;;;;;;19.10;8.10;;;13.10;99.90;;;;;;5069658;28;20048;-85
2023/07/02 04:12:12;;;;;;;20.15;8.32;;;13.10;99.90;;;;;;5067144;28;20087;-84
2023/07/02 04:14:38;;;;;;;19.98;8.05;;;13.10;99.90;;;;;;5084346;28;20079;-85
2023/07/02 04:17:04;;;;;;;13.00;6.68;;;13.50;99.90;;;;;;5067067;28;20098;-85
2023/07/02 04:19:29;;;;;;;15.35;7.57;;;13.10;99.90;;;;;;5050386;28;20052;-86
2023/07/02 04:21:55;;;;;;;18.92;7.85;;;13.10;99.90;;;;;;5047314;28;20041;-88
2023/07/02 04:24:21;;;;;;;14.52;7.60;;;13.20;99.90;;;;;;5030705;28;20051;-87
2023/07/02 04:26:46;;;;;;;15.52;8.10;;;13.20;99.90;;;;;;5046899;28;20501;-87
2023/07/02 04:29:12;;;;;;;17.10;7.47;;;13.30;99.90;;;;;;5047043;28;20148;-87
2023/07/02 04:31:37;;;;;;;16.38;7.85;;;13.40;99.90;;;;;;5061918;28;20496;-87
2023/07/02 04:34:05;;;;;;;17.88;7.80;;;13.60;99.90;;;;;;5065420;28;20045;-87
2023/07/02 04:36:31;;;;;;;23.15;8.68;;;13.70;99.90;;;;;;5050462;28;20048;-86
2023/07/02 04:38:56;;;;;;;20.60;8.30;;;13.80;99.90;;;;;;5084332;28;20488;-86
2023/07/02 04:41:22;;;;;;;16.50;7.72;;;13.90;99.90;;;;;;5049707;28;20358;-86
2023/07/02 04:43:48;;;;;;;18.63;7.65;;;13.90;99.90;;;;;;5048433;28;20044;-86
2023/07/02 04:46:14;;;;;;;18.98;7.95;;;13.90;99.90;;;;;;5047026;28;20049;-88
2023/07/02 04:48:39;;;;;;;17.40;7.80;;;13.90;99.90;;;;;;5058597;28;20055;-86
2023/07/02 04:51:05;;;;;;;15.68;7.03;;;14.00;99.90;;;;;;5044740;28;20072;-85
2023/07/02 04:53:30;;;;;;;20.90;8.07;;;14.00;99.90;;;;;;5045678;28;20053;-87
2023/07/02 04:55:59;;;;;;;15.50;8.55;;;14.20;99.90;;;;;;5066798;28;20044;-87
2023/07/02 04:58:24;;;;;;;18.45;7.82;;;14.10;99.90;;;;;;5066168;28;20091;-86
2023/07/02 05:00:50;;;;;;;19.73;7.70;;;14.30;99.90;;;;;;5066001;28;20492;-87
2023/07/02 05:03:16;;;;;;;19.20;7.78;;;14.00;99.90;;;;;;5064429;28;20108;-85
2023/07/02 05:05:41;;;;;;;17.10;7.55;;;14.30;99.90;;;;;;5064669;28;20041;-86
2023/07/02 05:08:07;;;;;;;18.77;7.90;;;14.20;99.90;;;;;;5056603;28;20036;-85
2023/07/02 05:10:32;;;;;;;19.67;8.05;;;14.20;99.90;;;;;;5065201;28;20155;-85
2023/07/02 05:12:58;;;;;;;18.40;7.57;;;14.30;99.90;;;;;;5053887;28;20143;-85
2023/07/02 05:15:24;;;;;;;19.80;7.88;;;14.70;99.90;;;;;;5079812;28;20088;-85
2023/07/02 05:17:49;;;;;;;17.52;8.07;;;14.50;99.90;;;;;;5066472;28;20105;-88
2023/07/02 05:20:15;;;;;;;18.15;7.68;;;14.60;99.90;;;;;;5045165;28;20725;-87
2023/07/02 05:22:41;;;;;;;20.45;7.18;;;14.70;99.90;;;;;;5048372;28;20087;-86
2023/07/02 05:25:07;;;;;;;16.05;7.80;;;14.80;99.90;;;;;;5067137;28;20037;-88
2023/07/02 05:27:33;;;;;;;19.17;7.15;;;14.90;99.90;;;;;;5049505;28;20079;-86
2023/07/02 05:29:59;;;;;;;19.10;7.80;;;15.00;99.90;;;;;;5066748;28;20083;-87
2023/07/02 05:32:25;;;;;;;15.07;7.60;;;15.60;99.90;;;;;;5050549;28;20051;-88
2023/07/02 05:34:51;;;;;;;17.45;7.60;;;15.50;99.90;;;;;;5051069;28;20040;-87
2023/07/02 05:37:16;;;;;;;19.05;6.78;;;16.40;99.90;;;;;;5067614;28;20047;-87
2023/07/02 05:39:42;;;;;;;15.85;7.50;;;17.50;99.90;;;;;;5068445;28;20048;-87
2023/07/02 05:42:08;;;;;;;15.40;7.00;;;18.40;99.90;;;;;;5052596;28;20045;-87
2023/07/02 05:44:34;;;;;;;12.60;6.38;;;19.40;99.90;;;;;;5061235;28;20174;-87
2023/07/02 05:46:59;;;;;;;16.38;7.18;;;20.10;99.90;;;;;;5064001;28;20048;-87
2023/07/02 05:49:26;;;;;;;16.85;6.70;;;20.20;99.90;;;;;;5049190;28;20047;-85
2023/07/02 05:51:52;;;;;;;18.30;7.22;;;20.90;99.90;;;;;;5061884;28;20056;-85
2023/07/02 05:54:18;;;;;;;16.40;7.32;;;20.80;99.90;;;;;;5062249;28;20404;-85
2023/07/02 05:56:43;;;;;;;14.85;6.95;;;20.40;99.90;;;;;;5067565;28;20040;-85
2023/07/02 05:59:09;;;;;;;17.83;7.40;;;19.80;99.90;;;;;;5064768;28;20036;-87
2023/07/02 06:01:36;;;;;;;11.55;6.20;;;20.30;99.90;;;;;;5060584;28;20415;-87
2023/07/02 06:04:02;;;;;;;15.98;6.65;;;20.00;99.90;;;;;;5048174;28;20132;-85
2023/07/02 06:06:28;;;;;;;13.75;6.65;;;20.60;99.90;;;;;;5069325;28;20128;-88
2023/07/02 06:08:55;;;;;;;17.30;6.68;;;20.60;99.90;;;;;;5068214;28;20136;-87
2023/07/02 06:11:21;;;;;;;14.63;6.35;;;20.90;99.90;;;;;;5084955;28;20056;-87
2023/07/02 06:13:47;;;;;;;20.65;7.25;;;20.50;99.90;;;;;;5055774;28;20138;-87
2023/07/02 06:16:12;;;;;;;15.75;5.88;;;20.80;99.90;;;;;;5070683;28;20472;-86
2023/07/02 06:18:38;;;;;;;13.35;6.05;;;20.90;99.90;;;;;;5069129;28;20044;-84
2023/07/02 06:21:04;;;;;;;12.82;6.15;;;21.30;99.90;;;;;;5066711;28;20177;-85
2023/07/02 06:23:30;;;;;;;12.80;6.55;;;21.20;99.90;;;;;;5061902;28;20060;-83
2023/07/02 06:25:58;;;;;;;11.98;5.38;;;21.60;99.90;;;;;;5050384;28;20049;-86
2023/07/02 06:28:26;;;;;;;15.48;6.53;;;21.50;99.90;;;;;;5069309;28;20098;-85
2023/07/02 06:30:51;;;;;;;12.73;5.88;;;20.70;99.90;;;;;;5068989;28;20072;-87
2023/07/02 06:33:17;;;;;;;16.20;5.68;;;19.70;99.90;;;;;;5065698;28;20068;-86
2023/07/02 06:35:43;;;;;;;14.75;5.78;;;19.10;99.90;;;;;;5069153;28;20121;-85
2023/07/02 06:38:08;;;;;;;13.32;5.95;;;18.60;99.90;;;;;;5069334;28;20055;-86
2023/07/02 06:40:34;;;;;;;11.35;6.00;;;18.40;99.90;;;;;;5066617;28;20048;-85
2023/07/02 06:43:00;;;;;;;12.18;5.50;;;18.10;99.90;;;;;;5068233;28;20504;-84
2023/07/02 06:45:25;;;;;;;11.40;5.45;;;17.90;99.90;;;;;;5052114;28;20036;-83
2023/07/02 06:47:51;;;;;;;15.57;5.75;;;17.80;99.90;;;;;;5052227;28;20452;-86
2023/07/02 06:50:16;;;;;;;16.52;5.63;;;18.00;99.90;;;;;;5066757;28;20045;-87
2023/07/02 06:52:42;;;;;;;14.00;6.40;;;17.90;99.90;;;;;;5048618;28;20154;-87
2023/07/02 06:55:08;;;;;;;13.57;5.63;;;18.20;99.90;;;;;;5068463;28;20547;-85
2023/07/02 06:57:34;;;;;;;14.80;5.88;;;18.60;99.90;;;;;;5067349;28;20133;-84
2023/07/02 07:00:00;;;;;;;12.63;5.38;;;18.50;99.90;;;;;;5070067;28;20522;-86
2023/07/02 07:02:27;;;;;;;13.25;5.72;;;18.30;99.90;;;;;;5068363;28;20091;-86
2023/07/02 07:04:52;;;;;;;14.35;5.43;;;18.10;99.90;;;;;;5067179;28;20068;-88
2023/07/02 07:07:19;;;;;;;12.90;5.47;;;17.80;99.90;;;;;;5068655;28;20156;-86
2023/07/02 07:09:44;;;;;;;12.07;5.13;;;17.60;99.90;;;;;;5067575;28;20060;-85
2023/07/02 07:12:10;;;;;;;12.02;6.03;;;17.70;99.90;;;;;;5068833;28;20119;-87
2023/07/02 07:14:36;;;;;;;13.98;5.00;;;17.20;99.90;;;;;;5052024;28;20056;-84
2023/07/02 07:17:01;;;;;;;11.65;5.40;;;17.10;99.90;;;;;;5066725;28;20403;-85
2023/07/02 07:19:28;;;;;;;10.82;5.57;;;17.10;99.90;;;;;;5066759;28;20070;-85
2023/07/02 07:21:53;;;;;;;14.40;5.60;;;17.10;99.90;;;;;;5067617;28;20048;-86
2023/07/02 07:24:19;;;;;;;10.30;5.20;;;17.20;99.90;;;;;;5065935;28;20044;-87
2023/07/02 07:26:45;;;;;;;11.27;5.28;;;17.30;99.90;;;;;;5067646;28;20048;-85
2023/07/02 07:29:11;;;;;;;14.23;5.57;;;17.50;99.90;;;;;;5068190;28;20121;-86
2023/07/02 07:31:37;;;;;;;11.77;5.68;;;17.70;99.90;;;;;;5067802;28;20083;-85
2023/07/02 07:34:02;;;;;;;10.75;4.70;;;17.90;99.90;;;;;;5066187;28;20063;-86
2023/07/02 07:36:28;;;;;;;15.55;5.65;;;18.10;99.90;;;;;;5067235;28;20047;-86
2023/07/02 07:38:54;;;;;;;12.48;5.10;;;18.30;99.90;;;;;;5066006;28;20063;-84
2023/07/02 07:41:19;;;;;;;12.50;4.95;;;18.30;99.90;;;;;;5058852;28;20049;-84
2023/07/02 07:43:45;;;;;;;11.20;4.68;;;18.20;99.90;;;;;;5047608;28;20698;-85
2023/07/02 07:46:11;;;;;;;11.02;4.40;;;18.20;99.90;;;;;;5054666;28;20040;-84
2023/07/02 07:48:36;;;;;;;11.25;4.40;;;18.30;99.90;;;;;;5051206;28;20094;-86
2023/07/02 07:51:02;;;;;;;9.35;4.75;;;18.40;99.90;;;;;;5065633;28;20151;-85
2023/07/02 07:53:28;;;;;;;9.57;3.83;;;18.40;99.90;;;;;;5052543;28;20048;-86
2023/07/02 07:55:53;;;;;;;9.45;4.53;;;18.80;99.90;;;;;;5050781;28;20412;-85
2023/07/02 07:58:19;;;;;;;9.43;3.83;;;18.50;99.90;;;;;;5068111;28;20043;-84
2023/07/02 08:00:45;;;;;;;9.30;3.60;;;18.70;99.90;;;;;;5067930;28;20091;-86
2023/07/02 08:03:10;;;;;;;9.45;3.72;;;18.80;99.90;;;;;;5084648;28;20044;-87
2023/07/02 08:05:39;;;;;;;7.63;2.92;;;18.80;99.90;;;;;;5067275;28;20048;-84
2023/07/02 08:08:05;;;;;;;7.78;3.90;;;18.50;99.90;;;;;;5068150;28;20090;-85
2023/07/02 08:10:30;;;;;;;10.93;3.95;;;18.20;99.90;;;;;;5067444;28;20094;-86
2023/07/02 08:12:56;;;;;;;10.02;3.92;;;18.50;99.90;;;;;;5069330;28;20470;-87
2023/07/02 08:15:22;;;;;;;9.63;3.80;;;18.50;99.90;;;;;;5050722;28;20124;-86
2023/07/02 08:17:48;;;;;;;9.07;3.63;;;18.80;99.90;;;;;;5067383;28;20044;-85
2023/07/02 08:20:13;;;;;;;7.30;2.88;;;19.00;99.90;;;;;;5068350;28;20082;-85
2023/07/02 08:22:39;;;;;;;6.28;2.67;;;18.90;99.90;;;;;;5066504;28;20101;-84
2023/07/02 08:25:06;;;;;;;5.85;2.85;;;18.80;99.40;;;;;;5066649;28;20047;-86
2023/07/02 08:27:31;;;;;;;6.15;3.17;;;18.70;99.30;;;;;;5067919;28;20044;-85
2023/07/02 08:29:57;;;;;;;10.38;2.75;;;19.10;98.80;;;;;;5066000;28;20037;-86
2023/07/02 08:32:23;;;;;;;9.85;3.92;;;19.00;99.00;;;;;;5067293;28;20118;-84
2023/07/02 08:34:50;;;;;;;8.93;2.70;;;18.50;98.80;;;;;;5066541;28;20488;-85
2023/07/02 08:37:16;;;;;;;7.25;3.08;;;18.60;98.40;;;;;;5050647;28;20127;-86
2023/07/02 08:39:42;;;;;;;7.97;3.22;;;19.20;99.00;;;;;;5067509;28;20144;-86
2023/07/02 08:42:07;;;;;;;6.10;2.83;;;18.90;99.00;;;;;;5067440;28;20425;-86
2023/07/02 08:44:33;;;;;;;8.57;3.13;;;18.80;98.30;;;;;;5049782;28;20040;-86
2023/07/02 08:46:59;;;;;;;5.43;2.58;;;18.60;97.90;;;;;;5066768;28;20044;-86
2023/07/02 08:49:25;;;;;;;7.93;3.17;;;18.30;97.90;;;;;;5050786;28;20041;-86
2023/07/02 08:51:51;;;;;;;6.30;3.33;;;18.50;98.30;;;;;;5065339;28;20040;-85
2023/07/02 08:54:20;;;;;;;9.10;3.10;;;18.70;97.60;;;;;;5064434;28;20072;-88
2023/07/02 08:56:46;;;;;;;7.53;3.38;;;18.30;97.80;;;;;;5067830;28;20098;-85
2023/07/02 08:59:12;;;;;;;8.93;3.15;;;18.20;98.60;;;;;;5066568;28;20049;-88
2023/07/02 09:01:49;;;;;;;9.27;3.28;;;18.00;98.50;;;;;;5050577;28;20040;-86
2023/07/02 09:04:19;;;;;;;6.03;2.53;;;18.10;97.30;;;;;;5066714;28;20066;-85
2023/07/02 09:06:48;;;;;;;7.15;3.30;;;18.00;99.00;;;;;;5066857;28;20119;-88
2023/07/02 09:09:14;;;;;;;5.90;3.40;;;18.00;99.30;;;;;;5067672;28;20056;-87
2023/07/02 09:11:48;;;;;;;8.70;3.50;;;18.50;99.80;;;;;;5049831;28;20128;-86
2023/07/02 09:14:25;;;;;;;6.88;3.00;;;18.30;99.70;;;;;;5066986;28;20049;-86
2023/07/02 09:17:09;;;;;;;7.32;3.17;;;18.30;98.60;;;;;;5066669;28;20384;-84
2023/07/02 09:19:36;;;;;;;8.18;3.15;;;18.20;98.90;;;;;;5067982;28;20040;-87
2023/07/02 09:22:03;;;;;;;8.15;3.35;;;18.30;99.90;;;;;;5063169;28;20492;-84
2023/07/02 09:24:30;;;;;;;7.30;3.50;;;18.40;99.90;;;;;;5056563;28;20048;-85
2023/07/02 09:26:58;;;;;;;8.23;3.92;;;19.10;99.90;;;;;;5063225;28;20036;-86
2023/07/02 09:29:24;;;;;;;9.32;3.67;;;18.90;99.90;;;;;;5065730;28;20068;-86
2023/07/02 09:31:50;;;;;;;7.53;3.90;;;19.40;99.90;;;;;;5050524;28;20045;-86
2023/07/02 09:34:16;;;;;;;13.90;4.28;;;19.30;99.90;;;;;;5066858;28;20044;-87
2023/07/02 09:36:43;;;;;;;7.20;3.72;;;19.10;99.80;;;;;;5066494;28;20049;-83
2023/07/02 09:39:19;;;;;;;9.10;4.00;;;18.80;99.70;;;;;;5067296;28;20045;-86
2023/07/02 09:41:48;;;;;;;9.23;3.80;;;18.80;99.90;;;;;;5070499;28;20055;-85
2023/07/02 09:44:14;;;;;;;10.02;3.88;;;18.80;99.90;;;;;;5069260;28;20166;-86
2023/07/02 09:46:52;;;;;;;7.93;3.95;;;18.90;99.90;;;;;;5081050;28;20131;-84
2023/07/02 09:49:22;;;;;;;8.07;3.42;;;19.30;99.20;;;;;;5059488;28;20510;-85
2023/07/02 09:51:48;;;;;;;9.98;3.70;;;19.30;98.90;;;;;;5069024;28;20076;-85
2023/07/02 09:54:13;;;;;;;7.18;3.40;;;19.20;99.20;;;;;;5069464;28;20551;-85
2023/07/02 09:56:40;;;;;;;7.57;3.50;;;19.10;99.30;;;;;;5069837;28;20079;-84
2023/07/02 09:59:05;;;;;;;7.22;3.35;;;19.30;99.10;;;;;;5070410;28;20500;-83
2023/07/02 10:01:31;;;;;;;8.52;3.67;;;19.00;98.90;;;;;;5074100;28;20040;-84
2023/07/02 10:03:57;;;;;;;8.50;3.30;;;19.00;99.50;;;;;;5071586;28;20047;-83
2023/07/02 10:06:22;;;;;;;9.10;3.00;;;19.30;98.60;;;;;;5068185;28;20484;-86
2023/07/02 10:08:55;;;;;;;7.20;3.38;;;18.90;98.30;;;;;;5071306;28;20044;-88
2023/07/02 10:11:32;;;;;;;9.32;3.30;;;18.90;97.20;;;;;;5067250;28;20112;-85
2023/07/02 10:14:00;;;;;;;6.95;3.45;;;18.90;98.80;;;;;;5064820;28;20752;-86
2023/07/02 10:16:27;;;;;;;8.60;3.13;;;18.90;98.80;;;;;;5049856;28;20531;-84
2023/07/02 10:18:54;;;;;;;7.13;3.45;;;18.90;99.20;;;;;;5068248;28;20059;-86
2023/07/02 10:21:21;;;;;;;7.25;3.10;;;18.90;98.50;;;;;;5052495;28;20036;-86
2023/07/02 10:23:46;;;;;;;10.35;3.30;;;19.00;98.50;;;;;;5049827;28;20131;-85
2023/07/02 10:26:16;;;;;;;7.82;3.10;;;18.90;98.40;;;;;;5067858;28;20076;-86
2023/07/02 10:28:42;;;;;;;5.78;3.00;;;18.90;98.10;;;;;;5069642;28;20504;-87
2023/07/02 10:31:20;;;;;;;5.63;2.55;;;18.80;97.10;;;;;;5066582;28;20468;-87
2023/07/02 10:33:47;;;;;;;7.38;2.92;;;18.70;95.90;;;;;;5068223;28;20052;-89
2023/07/02 10:36:24;;;;;;;9.32;3.65;;;18.70;97.60;;;;;;5069386;28;20064;-85
2023/07/02 10:38:50;;;;;;;5.93;3.30;;;18.70;97.00;;;;;;5049366;28;20515;-87
2023/07/02 10:41:25;;;;;;;9.07;3.40;;;18.90;98.20;;;;;;5048896;28;20083;-88
2023/07/02 10:43:50;;;;;;;7.15;3.85;;;19.60;97.90;;;;;;5049352;28;20067;-87
2023/07/02 10:46:21;;;;;;;8.30;3.35;;;19.40;98.20;;;;;;5052728;28;20041;-87
2023/07/02 10:48:56;;;;;;;6.05;2.85;;;19.60;97.90;;;;;;5067867;28;20469;-85
2023/07/02 10:51:23;;;;;;;6.38;3.35;;;19.90;96.50;;;;;;5067289;28;20147;-86
2023/07/02 10:53:59;;;;;;;8.50;3.17;;;19.40;97.00;;;;;;5070231;28;20051;-86
2023/07/02 10:56:27;;;;;;;8.90;3.30;;;19.50;96.40;;;;;;5051441;28;20110;-85
2023/07/02 10:58:54;;;;;;;8.02;3.75;;;19.10;96.90;;;;;;5065721;28;20130;-86
2023/07/02 11:01:31;;;;;;;7.25;3.42;;;19.20;97.60;;;;;;5068721;28;20048;-84
2023/07/02 11:04:04;;;;;;;6.95;3.25;;;19.50;98.20;;;;;;5067940;28;20044;-88
2023/07/02 11:06:32;;;;;;;10.15;4.30;;;19.30;98.00;;;;;;5068562;28;20178;-87
2023/07/02 11:08:58;;;;;;;6.07;3.03;;;19.40;98.40;;;;;;5068008;28;20519;-87
2023/07/02 11:11:24;;;;;;;10.38;3.70;;;19.40;98.20;;;;;;5052540;28;20048;-85
2023/07/02 11:13:51;;;;;;;8.00;3.30;;;19.60;98.10;;;;;;5068322;28;20712;-83
2023/07/02 11:16:25;;;;;;;8.80;3.70;;;19.50;97.30;;;;;;5068905;28;20044;-84
2023/07/02 11:19:08;;;;;;;9.90;4.05;;;19.50;96.60;;;;;;5067811;28;20063;-85
2023/07/02 11:21:34;;;;;;;8.35;3.40;;;19.40;95.80;;;;;;5067789;28;20056;-85
2023/07/02 11:24:08;;;;;;;7.07;3.28;;;19.20;96.80;;;;;;5053231;28;20041;-86
2023/07/02 11:26:40;;;;;;;6.90;3.30;;;19.30;97.40;;;;;;5051841;28;20166;-85
2023/07/02 11:29:17;;;;;;;7.25;3.55;;;19.40;97.40;;;;;;5067975;28;20045;-85
2023/07/02 11:31:43;;;;;;;4.82;2.95;;;19.50;97.70;;;;;;5067832;28;20067;-86
2023/07/02 11:34:20;;;;;;;8.50;3.25;;;19.70;98.00;;;;;;5046837;28;20465;-83
2023/07/02 11:36:46;;;;;;;7.38;3.08;;;19.40;97.70;;;;;;5066888;28;20102;-82
2023/07/02 11:39:12;;;;;;;11.25;3.20;;;19.50;98.30;;;;;;5068437;28;20052;-83
2023/07/02 11:41:39;;;;;;;9.32;3.30;;;19.20;98.10;;;;;;5069486;28;20040;-83
2023/07/02 11:44:05;;;;;;;7.75;3.20;;;19.20;98.00;;;;;;5069098;28;20045;-83
2023/07/02 11:46:30;;;;;;;7.68;3.90;;;19.30;98.40;;;;;;5067257;28;20058;-83
2023/07/02 11:48:56;;;;;;;10.85;3.35;;;19.30;98.10;;;;;;5067521;28;20401;-86
2023/07/02 11:51:22;;;;;;;9.25;3.35;;;19.30;97.60;;;;;;5083768;28;20052;-85
2023/07/02 11:53:47;;;;;;;12.88;3.60;;;19.50;97.20;;;;;;5050953;28;20055;-86
2023/07/02 11:56:13;;;;;;;7.85;3.22;;;20.00;97.10;;;;;;5051047;28;20113;-85
2023/07/02 11:58:39;;;;;;;8.38;3.70;;;19.80;96.10;;;;;;5068027;28;20070;-84
2023/07/02 12:01:05;;;;;;;7.72;2.97;;;19.80;95.90;;;;;;5049880;28;20086;-86
2023/07/02 12:03:31;;;;;;;8.38;3.25;;;20.30;96.30;;;;;;5068376;28;20048;-86
2023/07/02 12:05:56;;;;;;;7.28;2.70;;;20.20;95.20;;;;;;5066516;28;20060;-86
2023/07/02 12:08:22;;;;;;;9.10;3.10;;;20.20;94.60;;;;;;5066504;28;20099;-87
2023/07/02 12:10:48;;;;;;;6.28;2.80;;;20.20;94.30;;;;;;5051179;28;20049;-85
2023/07/02 12:13:14;;;;;;;6.68;2.83;;;20.00;93.60;;;;;;5067447;28;20037;-85
2023/07/02 12:15:39;;;;;;;7.80;2.70;;;19.90;94.10;;;;;;5068260;28;20040;-85
2023/07/02 12:18:05;;;;;;;6.25;2.40;;;19.90;94.10;;;;;;5050743;28;20079;-84
2023/07/02 12:20:31;;;;;;;6.00;2.88;;;19.70;94.10;;;;;;5066769;28;20043;-85
2023/07/02 12:22:57;;;;;;;9.82;2.95;;;19.80;94.50;;;;;;5065752;28;20041;-84
2023/07/02 12:25:23;;;;;;;5.68;2.38;;;20.10;94.50;;;;;;5065311;28;20044;-84
2023/07/02 12:27:48;;;;;;;4.90;2.70;;;20.10;93.30;;;;;;5066612;28;20040;-85
2023/07/02 12:30:17;;;;;;;5.28;2.22;;;20.10;93.00;;;;;;5066417;28;20089;-84
2023/07/02 12:32:43;;;;;;;8.48;2.88;;;20.10;92.90;;;;;;5066675;28;20052;-84
2023/07/02 12:35:09;;;;;;;8.73;3.08;;;20.20;92.00;;;;;;5058097;28;20056;-84
2023/07/02 12:37:34;;;;;;;8.25;2.63;;;20.50;91.20;;;;;;5059087;28;20420;-85